createdAt,value
2018-08-04T00:01:34.351Z,21.87
2018-08-04T00:04:03.887Z,21.84
2018-08-04T00:06:35.082Z,21.77
2018-08-04T00:09:07.358Z,21.61
2018-08-04T00:11:36.590Z,21.65
2018-08-04T00:14:06.171Z,21.59
2018-08-04T00:16:35.382Z,21.61
2018-08-04T00:19:04.648Z,21.62
2018-08-04T00:21:34.204Z,21.48
2018-08-04T00:24:04.419Z,21.49
2018-08-04T00:26:34.198Z,21.43
2018-08-04T00:29:04.035Z,21.43
2018-08-04T00:31:33.966Z,21.53
2018-08-04T00:34:03.165Z,21.41
2018-08-04T00:36:32.707Z,21.36
2018-08-04T00:39:01.914Z,21.43
2018-08-04T00:41:31.114Z,21.20
2018-08-04T00:44:00.283Z,21.25
2018-08-04T00:46:29.487Z,21.11
2018-08-04T00:48:58.667Z,21.06
2018-08-04T00:51:27.891Z,21.00
2018-08-04T00:53:57.224Z,21.08
2018-08-04T00:56:26.410Z,21.02
2018-08-04T00:58:55.614Z,21.04
2018-08-04T01:01:25.011Z,20.91
2018-08-04T01:03:54.250Z,20.92
2018-08-04T01:06:23.435Z,20.97
2018-08-04T01:08:52.644Z,20.88
2018-08-04T01:11:22.201Z,20.63
2018-08-04T01:13:51.427Z,20.56
2018-08-04T01:16:20.638Z,20.33
2018-08-04T01:18:49.822Z,20.36
2018-08-04T01:21:19.454Z,20.38
2018-08-04T01:23:48.680Z,20.33
2018-08-04T01:26:18.206Z,20.29
2018-08-04T01:28:47.593Z,20.18
2018-08-04T01:31:16.808Z,20.33
2018-08-04T01:33:45.975Z,20.28
2018-08-04T01:36:15.209Z,20.39
2018-08-04T01:38:44.602Z,20.33
2018-08-04T01:41:13.815Z,20.37
2018-08-04T01:43:43.191Z,20.36
2018-08-04T01:46:12.401Z,20.41
2018-08-04T01:48:41.581Z,20.42
2018-08-04T01:51:10.855Z,20.39
2018-08-04T01:53:40.002Z,20.44
2018-08-04T01:56:09.210Z,20.34
2018-08-04T01:58:38.398Z,20.15
2018-08-04T02:01:07.592Z,20.14
2018-08-04T02:03:36.795Z,19.96
2018-08-04T02:06:05.999Z,19.65
2018-08-04T02:08:35.191Z,19.71
2018-08-04T02:11:04.743Z,19.75
2018-08-04T02:13:34.154Z,19.89
2018-08-04T02:16:03.366Z,19.96
2018-08-04T02:18:32.579Z,20.15
2018-08-04T02:21:01.747Z,20.22
2018-08-04T02:23:31.398Z,20.31
2018-08-04T02:26:00.711Z,20.39
2018-08-04T02:28:29.895Z,20.29
2018-08-04T02:30:59.207Z,20.23
2018-08-04T02:33:28.711Z,20.35
2018-08-04T02:35:57.925Z,20.40
2018-08-04T02:38:27.079Z,20.38
2018-08-04T02:40:56.283Z,20.40
2018-08-04T02:43:25.655Z,20.34
2018-08-04T02:45:55.227Z,20.36
2018-08-04T02:48:24.407Z,20.35
2018-08-04T02:50:54.422Z,20.15
2018-08-04T02:53:23.896Z,20.05
2018-08-04T02:55:53.248Z,20.05
2018-08-04T02:58:22.421Z,20.16
2018-08-04T03:00:51.646Z,20.21
2018-08-04T03:03:21.200Z,20.30
2018-08-04T03:05:50.528Z,20.22
2018-08-04T03:08:19.774Z,20.20
2018-08-04T03:10:49.001Z,20.17
2018-08-04T03:13:18.598Z,20.17
2018-08-04T03:15:47.788Z,20.22
2018-08-04T03:18:17.335Z,20.41
2018-08-04T03:20:46.529Z,20.28
2018-08-04T03:23:15.720Z,20.36
2018-08-04T03:25:45.715Z,20.36
2018-08-04T03:28:14.885Z,20.41
2018-08-04T03:30:44.295Z,20.37
2018-08-04T03:33:13.495Z,20.35
2018-08-04T03:35:43.630Z,20.33
2018-08-04T03:38:12.855Z,20.42
2018-08-04T03:40:42.071Z,20.38
2018-08-04T03:43:11.265Z,20.31
2018-08-04T03:45:40.487Z,20.24
2018-08-04T03:48:10.639Z,20.16
2018-08-04T03:50:39.833Z,20.05
2018-08-04T03:53:09.022Z,20.03
2018-08-04T03:55:38.216Z,19.85
2018-08-04T03:58:07.615Z,19.85
2018-08-04T04:00:36.827Z,19.81
2018-08-04T04:03:05.999Z,19.77
2018-08-04T04:05:35.331Z,19.63
2018-08-04T04:08:04.679Z,19.56
2018-08-04T04:10:33.878Z,19.61
2018-08-04T04:13:03.090Z,19.64
2018-08-04T04:15:32.358Z,19.63
2018-08-04T04:18:01.644Z,19.77
2018-08-04T04:20:30.818Z,19.60
2018-08-04T04:22:59.997Z,19.56
2018-08-04T04:25:29.275Z,19.58
2018-08-04T04:27:58.468Z,19.60
2018-08-04T04:30:27.687Z,19.64
2018-08-04T04:32:56.882Z,19.59
2018-08-04T04:35:26.115Z,19.62
2018-08-04T04:37:55.302Z,19.62
2018-08-04T04:40:24.492Z,19.69
2018-08-04T04:42:53.691Z,19.62
2018-08-04T04:45:22.903Z,19.86
2018-08-04T04:47:52.074Z,19.85
2018-08-04T04:50:21.346Z,19.86
2018-08-04T04:52:50.757Z,20.08
2018-08-04T04:55:20.003Z,19.98
2018-08-04T04:57:49.395Z,20.12
2018-08-04T05:00:18.814Z,20.20
2018-08-04T05:02:47.994Z,20.46
2018-08-04T05:05:17.382Z,20.35
2018-08-04T05:07:46.567Z,20.42
2018-08-04T05:10:15.836Z,20.39
2018-08-04T05:12:45.315Z,20.57
2018-08-04T05:15:14.535Z,20.71
2018-08-04T05:17:43.838Z,20.78
2018-08-04T05:20:13.084Z,20.89
2018-08-04T05:22:42.611Z,21.21
2018-08-04T05:25:12.078Z,21.48
2018-08-04T05:27:41.278Z,21.42
2018-08-04T05:30:10.827Z,21.62
2018-08-04T05:32:40.038Z,21.79
2018-08-04T05:35:09.223Z,22.08
2018-08-04T05:37:38.835Z,22.07
2018-08-04T05:40:08.033Z,22.11
2018-08-04T05:42:37.280Z,22.42
2018-08-04T05:45:07.686Z,22.69
2018-08-04T05:47:36.891Z,22.96
2018-08-04T05:50:06.489Z,23.27
2018-08-04T05:52:35.967Z,24.27
2018-08-04T05:55:05.267Z,25.17
2018-08-04T05:57:34.699Z,26.12
2018-08-04T06:00:04.419Z,26.51
2018-08-04T06:02:33.827Z,26.97
2018-08-04T06:05:03.027Z,26.62
2018-08-04T06:07:32.235Z,27.14
2018-08-04T06:10:01.767Z,27.92
2018-08-04T06:12:31.335Z,28.26
2018-08-04T06:15:00.502Z,28.68
2018-08-04T06:17:29.734Z,28.92
2018-08-04T06:19:58.907Z,28.02
2018-08-04T06:22:28.119Z,27.46
2018-08-04T06:24:57.313Z,27.56
2018-08-04T06:27:26.502Z,27.78
2018-08-04T06:29:55.915Z,27.23
2018-08-04T06:32:25.235Z,26.66
2018-08-04T06:34:54.411Z,26.96
2018-08-04T06:37:23.911Z,27.23
2018-08-04T06:39:53.102Z,28.77
2018-08-04T06:42:22.655Z,29.34
2018-08-04T06:44:51.925Z,29.56
2018-08-04T06:47:21.106Z,29.03
2018-08-04T06:49:50.407Z,28.66
2018-08-04T06:52:19.687Z,28.77
2018-08-04T06:54:48.875Z,30.65
2018-08-04T06:57:18.419Z,31.77
2018-08-04T06:59:47.795Z,30.76
2018-08-04T07:02:17.002Z,31.03
2018-08-04T07:04:46.503Z,32.91
2018-08-04T07:07:15.762Z,32.59
2018-08-04T07:09:44.959Z,33.57
2018-08-04T07:12:15.139Z,32.45
2018-08-04T07:14:44.338Z,31.20
2018-08-04T07:17:13.831Z,31.31
2018-08-04T07:19:43.010Z,32.63
2018-08-04T07:22:12.423Z,33.65
2018-08-04T07:24:41.610Z,34.51
2018-08-04T07:27:10.840Z,34.39
2018-08-04T07:29:40.034Z,35.34
2018-08-04T07:32:09.231Z,36.78
2018-08-04T07:34:38.447Z,36.53
2018-08-04T07:37:08.144Z,36.66
2018-08-04T07:39:37.307Z,37.66
2018-08-04T07:42:06.818Z,37.48
2018-08-04T07:44:36.024Z,36.96
2018-08-04T07:47:05.255Z,37.74
2018-08-04T07:49:34.476Z,36.82
2018-08-04T07:52:03.967Z,38.11
2018-08-04T07:54:33.306Z,38.66
2018-08-04T07:57:02.863Z,39.89
2018-08-04T07:59:32.271Z,40.09
2018-08-04T08:02:01.658Z,39.49
2018-08-04T08:04:31.248Z,36.77
2018-08-04T08:07:00.438Z,37.33
2018-08-04T08:09:29.631Z,37.77
2018-08-04T08:11:58.834Z,39.61
2018-08-04T08:14:28.076Z,39.58
2018-08-04T08:16:57.254Z,37.84
2018-08-04T08:19:26.587Z,35.75
2018-08-04T08:21:55.674Z,33.89
2018-08-04T08:24:25.627Z,33.38
2018-08-04T08:26:55.174Z,33.35
2018-08-04T08:29:24.379Z,32.98
2018-08-04T08:31:53.587Z,32.49
2018-08-04T08:34:23.022Z,32.61
2018-08-04T08:36:52.207Z,31.67
2018-08-04T08:39:21.416Z,31.24
2018-08-04T08:41:50.606Z,30.62
2018-08-04T08:44:20.020Z,30.63
2018-08-04T08:46:49.981Z,31.64
2018-08-04T08:49:19.153Z,35.12
2018-08-04T08:51:48.517Z,38.19
2018-08-04T08:54:18.047Z,40.58
2018-08-04T08:56:47.235Z,41.36
2018-08-04T08:59:16.563Z,41.11
2018-08-04T09:01:45.762Z,41.89
2018-08-04T09:04:15.063Z,43.57
2018-08-04T09:06:44.839Z,43.46
2018-08-04T09:09:14.031Z,42.96
2018-08-04T09:11:43.210Z,43.04
2018-08-04T09:14:12.423Z,43.19
2018-08-04T09:16:41.603Z,44.72
2018-08-04T09:19:10.786Z,43.98
2018-08-04T09:21:40.011Z,43.18
2018-08-04T09:24:09.534Z,43.76
2018-08-04T09:26:39.465Z,44.38
2018-08-04T09:29:08.647Z,44.40
2018-08-04T09:31:38.327Z,43.58
2018-08-04T09:34:08.367Z,43.85
2018-08-04T09:36:37.848Z,42.36
2018-08-04T09:39:09.866Z,42.46
2018-08-04T09:41:39.659Z,41.56
2018-08-04T09:44:08.875Z,40.86
2018-08-04T09:46:38.834Z,42.64
2018-08-04T09:49:08.046Z,44.02
2018-08-04T09:51:37.291Z,43.88
2018-08-04T09:54:07.103Z,45.30
2018-08-04T09:56:36.268Z,45.42
2018-08-04T09:59:05.475Z,42.39
2018-08-04T10:01:36.703Z,41.73
2018-08-04T10:04:06.322Z,41.41
2018-08-04T10:06:36.023Z,42.27
2018-08-04T10:09:07.942Z,42.67
2018-08-04T10:11:37.115Z,44.16
2018-08-04T10:14:06.414Z,43.59
2018-08-04T10:16:35.599Z,44.29
2018-08-04T10:19:04.822Z,43.68
2018-08-04T10:21:34.040Z,42.46
2018-08-04T10:24:03.214Z,41.27
2018-08-04T10:26:32.414Z,42.63
2018-08-04T10:29:01.622Z,41.02
2018-08-04T10:31:31.402Z,40.92
2018-08-04T10:34:00.627Z,39.16
2018-08-04T10:36:29.802Z,37.88
2018-08-04T10:38:59.071Z,38.02
2018-08-04T10:41:28.235Z,39.62
2018-08-04T10:43:57.499Z,40.00
2018-08-04T10:46:26.755Z,42.32
2018-08-04T10:48:55.967Z,43.77
2018-08-04T10:51:25.739Z,43.36
2018-08-04T10:53:54.977Z,44.35
2018-08-04T10:56:24.345Z,42.37
2018-08-04T10:58:53.543Z,44.02
2018-08-04T11:01:23.367Z,44.55
2018-08-04T11:03:53.434Z,44.92
2018-08-04T11:06:22.575Z,44.48
2018-08-04T11:08:51.776Z,44.45
2018-08-04T11:11:20.959Z,44.97
2018-08-04T11:13:50.727Z,45.99
2018-08-04T11:16:20.148Z,45.91
2018-08-04T11:18:49.310Z,44.52
2018-08-04T11:21:18.514Z,45.12
2018-08-04T11:23:47.836Z,43.94
2018-08-04T11:26:17.186Z,43.35
2018-08-04T11:28:46.359Z,44.04
2018-08-04T11:31:15.550Z,43.86
2018-08-04T11:33:45.266Z,44.39
2018-08-04T11:36:14.451Z,43.55
2018-08-04T11:38:43.647Z,44.54
2018-08-04T11:41:13.363Z,45.76
2018-08-04T11:43:42.642Z,44.38
2018-08-04T11:46:12.085Z,43.45
2018-08-04T11:48:41.875Z,43.57
2018-08-04T11:51:11.776Z,44.27
2018-08-04T11:53:41.013Z,45.45
2018-08-04T11:56:10.511Z,45.60
2018-08-04T11:58:39.687Z,44.59
2018-08-04T12:01:08.915Z,43.91
2018-08-04T12:03:38.131Z,44.17
2018-08-04T12:06:07.435Z,45.23
2018-08-04T12:08:36.626Z,45.03
2018-08-04T12:11:05.951Z,43.69
2018-08-04T12:13:35.127Z,43.93
2018-08-04T12:16:04.395Z,42.95
2018-08-04T12:18:33.578Z,43.22
2018-08-04T12:21:02.979Z,43.72
2018-08-04T12:23:32.442Z,44.41
2018-08-04T12:26:02.216Z,44.36
2018-08-04T12:28:31.395Z,44.52
2018-08-04T12:31:00.767Z,42.87
2018-08-04T12:33:29.947Z,43.60
2018-08-04T12:35:59.353Z,44.91
2018-08-04T12:38:28.623Z,45.38
2018-08-04T12:40:57.835Z,44.18
2018-08-04T12:43:27.386Z,44.52
2018-08-04T12:45:56.791Z,45.11
2018-08-04T12:48:28.783Z,45.60
2018-08-04T12:51:00.063Z,45.22
2018-08-04T12:53:29.583Z,44.42
2018-08-04T12:55:59.687Z,44.81
2018-08-04T12:58:28.911Z,43.62
2018-08-04T13:00:58.140Z,44.31
2018-08-04T13:03:27.342Z,44.21
2018-08-04T13:05:56.736Z,42.60
2018-08-04T13:08:25.908Z,43.18
2018-08-04T13:10:55.111Z,43.30
2018-08-04T13:13:24.281Z,42.28
2018-08-04T13:15:54.036Z,43.06
2018-08-04T13:18:23.265Z,43.31
2018-08-04T13:20:52.725Z,43.82
2018-08-04T13:23:21.907Z,43.80
2018-08-04T13:25:51.143Z,43.93
2018-08-04T13:28:20.522Z,43.31
2018-08-04T13:30:49.923Z,43.36
2018-08-04T13:33:19.378Z,42.53
2018-08-04T13:35:48.659Z,41.77
2018-08-04T13:38:18.126Z,43.14
2018-08-04T13:40:47.323Z,41.83
2018-08-04T13:43:16.718Z,41.77
2018-08-04T13:45:46.131Z,41.49
2018-08-04T13:48:15.327Z,42.45
2018-08-04T13:50:44.556Z,42.66
2018-08-04T13:53:13.739Z,43.51
2018-08-04T13:55:42.974Z,43.91
2018-08-04T13:58:12.179Z,42.80
2018-08-04T14:00:42.055Z,43.66
2018-08-04T14:03:11.238Z,43.37
2018-08-04T14:05:40.976Z,43.68
2018-08-04T14:08:10.193Z,42.15
2018-08-04T14:10:39.400Z,42.24
2018-08-04T14:13:09.055Z,42.12
2018-08-04T14:15:38.250Z,42.61
2018-08-04T14:18:07.471Z,42.92
2018-08-04T14:20:37.015Z,41.84
2018-08-04T14:23:06.415Z,42.43
2018-08-04T14:25:35.622Z,42.52
2018-08-04T14:28:04.843Z,41.55
2018-08-04T14:30:34.239Z,40.88
2018-08-04T14:33:04.321Z,41.44
2018-08-04T14:35:33.698Z,42.00
2018-08-04T14:38:02.895Z,41.49
2018-08-04T14:40:32.113Z,41.33
2018-08-04T14:43:01.296Z,41.85
2018-08-04T14:45:30.454Z,40.83
2018-08-04T14:47:59.698Z,40.42
2018-08-04T14:50:29.139Z,40.28
2018-08-04T14:52:58.299Z,40.27
2018-08-04T14:55:27.498Z,40.07
2018-08-04T14:57:56.723Z,39.81
2018-08-04T15:00:27.831Z,40.16
2018-08-04T15:02:58.016Z,39.76
2018-08-04T15:05:27.817Z,39.97
2018-08-04T15:07:58.182Z,38.97
2018-08-04T15:10:27.342Z,39.02
2018-08-04T15:12:56.556Z,38.63
2018-08-04T15:15:25.811Z,38.86
2018-08-04T15:17:55.003Z,38.61
2018-08-04T15:20:24.283Z,37.99
2018-08-04T15:22:53.510Z,37.75
2018-08-04T15:25:22.739Z,37.26
2018-08-04T15:27:52.660Z,37.66
2018-08-04T15:30:21.860Z,37.62
2018-08-04T15:32:51.051Z,37.56
2018-08-04T15:35:20.387Z,37.66
2018-08-04T15:37:50.426Z,37.65
2018-08-04T15:40:19.711Z,37.28
2018-08-04T15:42:48.943Z,37.22
2018-08-04T15:45:19.031Z,37.24
2018-08-04T15:47:48.338Z,36.99
2018-08-04T15:50:17.507Z,36.22
2018-08-04T15:52:46.729Z,36.46
2018-08-04T15:55:15.932Z,36.34
2018-08-04T15:57:45.143Z,36.03
2018-08-04T16:00:14.348Z,36.48
2018-08-04T16:02:43.883Z,35.95
2018-08-04T16:05:13.578Z,35.56
2018-08-04T16:07:42.760Z,35.49
2018-08-04T16:10:12.851Z,35.41
2018-08-04T16:12:42.530Z,35.63
2018-08-04T16:15:11.787Z,35.34
2018-08-04T16:17:41.256Z,35.03
2018-08-04T16:20:14.040Z,35.14
2018-08-04T16:22:44.197Z,34.93
2018-08-04T16:25:14.401Z,35.16
2018-08-04T16:27:44.835Z,35.11
2018-08-04T16:30:14.014Z,34.90
2018-08-04T16:32:43.256Z,34.63
2018-08-04T16:35:12.421Z,34.83
2018-08-04T16:37:41.629Z,34.63
2018-08-04T16:40:11.063Z,34.56
2018-08-04T16:42:40.275Z,34.38
2018-08-04T16:45:09.479Z,34.11
2018-08-04T16:47:39.034Z,33.84
2018-08-04T16:50:08.475Z,33.72
2018-08-04T16:52:37.780Z,33.88
2018-08-04T16:55:06.987Z,33.83
2018-08-04T16:57:36.192Z,33.53
2018-08-04T17:00:06.090Z,33.36
2018-08-04T17:02:35.311Z,33.13
2018-08-04T17:05:04.655Z,33.49
2018-08-04T17:07:34.490Z,33.48
2018-08-04T17:10:03.679Z,33.38
2018-08-04T17:12:32.898Z,33.27
2018-08-04T17:15:03.657Z,32.80
2018-08-04T17:17:33.542Z,32.90
2018-08-04T17:20:02.987Z,32.86
2018-08-04T17:22:32.221Z,32.70
2018-08-04T17:25:01.880Z,32.74
2018-08-04T17:27:31.351Z,32.46
2018-08-04T17:30:00.663Z,32.53
2018-08-04T17:32:29.926Z,32.22
2018-08-04T17:34:59.150Z,32.09
2018-08-04T17:37:28.402Z,32.02
2018-08-04T17:39:57.638Z,31.92
2018-08-04T17:42:26.846Z,31.83
2018-08-04T17:44:56.320Z,31.73
2018-08-04T17:47:25.528Z,31.67
2018-08-04T17:49:55.439Z,31.75
2018-08-04T17:52:24.643Z,31.57
2018-08-04T17:54:53.930Z,31.21
2018-08-04T17:57:23.288Z,31.29
2018-08-04T17:59:53.167Z,31.15
2018-08-04T18:02:22.374Z,31.11
2018-08-04T18:04:51.570Z,31.02
2018-08-04T18:07:20.791Z,31.05
2018-08-04T18:09:49.944Z,30.83
2018-08-04T18:12:19.994Z,30.63
2018-08-04T18:14:49.863Z,30.45
2018-08-04T18:17:19.817Z,30.28
2018-08-04T18:19:49.710Z,30.30
2018-08-04T18:22:19.287Z,30.16
2018-08-04T18:24:49.679Z,30.17
2018-08-04T18:27:18.912Z,30.02
2018-08-04T18:29:48.210Z,29.73
2018-08-04T18:32:17.406Z,29.73
2018-08-04T18:34:46.699Z,29.63
2018-08-04T18:37:15.883Z,29.64
2018-08-04T18:39:45.083Z,29.33
2018-08-04T18:42:15.688Z,29.33
2018-08-04T18:44:45.228Z,29.31
2018-08-04T18:47:14.319Z,29.07
2018-08-04T18:49:44.643Z,28.95
2018-08-04T18:52:13.843Z,28.82
2018-08-04T18:54:43.043Z,28.72
2018-08-04T18:57:12.588Z,28.81
2018-08-04T18:59:41.829Z,28.61
2018-08-04T19:02:10.979Z,28.56
2018-08-04T19:04:40.183Z,28.38
2018-08-04T19:07:09.579Z,28.24
2018-08-04T19:09:38.771Z,28.30
2018-08-04T19:12:08.673Z,28.14
2018-08-04T19:14:37.858Z,28.05
2018-08-04T19:17:07.043Z,28.01
2018-08-04T19:19:36.242Z,27.82
2018-08-04T19:22:05.679Z,27.79
2018-08-04T19:24:35.158Z,27.72
2018-08-04T19:27:05.214Z,27.71
2018-08-04T19:29:34.436Z,27.48
2018-08-04T19:32:04.291Z,27.56
2018-08-04T19:34:33.482Z,27.30
2018-08-04T19:37:02.867Z,27.25
2018-08-04T19:39:32.286Z,27.31
2018-08-04T19:42:02.411Z,27.14
2018-08-04T19:44:32.134Z,27.17
2018-08-04T19:47:01.600Z,27.23
2018-08-04T19:49:30.802Z,27.28
2018-08-04T19:51:59.985Z,27.23
2018-08-04T19:54:29.186Z,27.12
2018-08-04T19:56:58.567Z,27.03
2018-08-04T19:59:27.766Z,27.02
2018-08-04T20:01:56.936Z,27.01
2018-08-04T20:04:26.186Z,26.79
2018-08-04T20:06:55.359Z,26.78
2018-08-04T20:09:24.819Z,26.64
2018-08-04T20:11:55.262Z,26.63
2018-08-04T20:14:24.924Z,26.77
2018-08-04T20:16:54.122Z,26.59
2018-08-04T20:19:23.466Z,26.58
2018-08-04T20:21:53.333Z,26.69
2018-08-04T20:24:22.545Z,26.27
2018-08-04T20:26:52.298Z,26.17
2018-08-04T20:29:21.828Z,25.95
2018-08-04T20:31:50.979Z,25.85
2018-08-04T20:34:20.499Z,25.73
2018-08-04T20:36:50.104Z,25.55
2018-08-04T20:39:19.306Z,25.53
2018-08-04T20:41:48.495Z,25.47
2018-08-04T20:44:17.698Z,25.33
2018-08-04T20:46:46.900Z,25.12
2018-08-04T20:49:16.133Z,24.98
2018-08-04T20:51:45.543Z,24.94
2018-08-04T20:54:14.751Z,24.89
2018-08-04T20:56:44.348Z,24.82
2018-08-04T20:59:13.579Z,24.95
2018-08-04T21:01:49.320Z,24.95
2018-08-04T21:04:18.851Z,25.04
2018-08-04T21:06:48.436Z,25.07
2018-08-04T21:09:17.627Z,24.92
2018-08-04T21:11:52.711Z,24.76
2018-08-04T21:14:23.051Z,24.68
2018-08-04T21:16:53.537Z,24.76
2018-08-04T21:19:23.470Z,24.95
2018-08-04T21:21:52.707Z,24.88
2018-08-04T21:24:23.115Z,25.02
2018-08-04T21:26:53.195Z,25.09
2018-08-04T21:29:23.335Z,25.09
2018-08-04T21:31:52.568Z,25.02
2018-08-04T21:34:22.017Z,25.18
2018-08-04T21:36:51.400Z,25.10
2018-08-04T21:39:20.951Z,25.04
2018-08-04T21:41:50.131Z,25.12
2018-08-04T21:44:19.360Z,24.82
2018-08-04T21:46:50.468Z,24.93
2018-08-04T21:49:20.473Z,24.80
2018-08-04T21:51:50.607Z,24.83
2018-08-04T21:54:20.322Z,24.80
2018-08-04T21:56:49.214Z,24.80
2018-08-04T21:59:18.615Z,24.94
2018-08-04T22:01:53.902Z,24.93
2018-08-04T22:04:23.096Z,24.95
2018-08-04T22:08:01.636Z,24.92
2018-08-04T22:10:30.876Z,24.68
2018-08-04T22:13:00.109Z,24.74
2018-08-04T22:15:29.304Z,24.67
2018-08-04T22:17:58.546Z,24.76
2018-08-04T22:20:28.490Z,24.63
2018-08-04T22:22:57.650Z,24.62
2018-08-04T22:25:28.555Z,24.48
2018-08-04T22:27:58.306Z,24.43
2018-08-04T22:30:28.530Z,24.47
2018-08-04T22:32:57.843Z,24.50
2018-08-04T22:35:28.386Z,24.34
2018-08-04T22:37:57.562Z,24.28
2018-08-04T22:40:27.039Z,24.39
2018-08-04T22:42:56.238Z,24.32
2018-08-04T22:45:47.122Z,24.33
2018-08-04T22:48:16.346Z,24.20
2018-08-04T22:50:46.435Z,24.16
2018-08-04T22:53:15.840Z,24.16
2018-08-04T22:55:45.052Z,24.10
2018-08-04T22:58:14.758Z,23.97
2018-08-04T23:00:44.663Z,24.15
2018-08-04T23:03:14.375Z,24.09
2018-08-04T23:05:43.580Z,24.00
2018-08-04T23:08:13.480Z,23.93
2018-08-04T23:10:43.635Z,23.96
2018-08-04T23:13:13.202Z,23.88
2018-08-04T23:15:42.989Z,23.87
2018-08-04T23:18:12.291Z,23.86
2018-08-04T23:20:41.743Z,23.89
2018-08-04T23:23:11.955Z,23.71
2018-08-04T23:25:41.163Z,23.76
2018-08-04T23:28:10.755Z,23.61
2018-08-04T23:30:40.534Z,23.67
2018-08-04T23:33:09.718Z,23.52
2018-08-04T23:35:39.123Z,23.47
2018-08-04T23:38:08.522Z,23.52
2018-08-04T23:40:37.727Z,23.42
2018-08-04T23:43:06.966Z,23.32
2018-08-04T23:45:36.260Z,23.37
2018-08-04T23:48:05.430Z,23.35
2018-08-04T23:50:35.000Z,23.21
2018-08-04T23:53:05.108Z,23.23
2018-08-04T23:55:34.839Z,23.22
2018-08-04T23:58:04.488Z,23.18
